Time;durP1;ratioP1;P1;durP2;ratioP2;P2;SDS_P1;SDS_P2;PMS_P1;PMS_P2;Temp;Humidity;BMP_temperature;BMP_pressure;BME280_temperature;BME280_humidity;BME280_pressure;Samples;Min_cycle;Max_cycle;Signal;HPM_P1;HPM_P2
2022/08/22 00:00:52;;;;;;;5.65;2.90;;;20.60;91.30;;;;;;4991180;28;20057;-81
2022/08/22 00:03:26;;;;;;;6.57;2.85;;;20.60;91.30;;;;;;4992402;28;20069;-81
2022/08/22 00:06:19;;;;;;;7.57;2.60;;;20.60;91.50;;;;;;4993981;28;20049;-82
2022/08/22 00:09:08;;;;;;;5.55;2.50;;;20.60;91.40;;;;;;4993855;28;20030;-81
2022/08/22 00:12:15;;;;;;;10.02;3.17;;;20.50;91.80;;;;;;4990034;28;20042;-81
2022/08/22 00:14:52;;;;;;;7.25;2.88;;;20.40;92.00;;;;;;4992191;28;20381;-82
2022/08/22 00:17:36;;;;;;;8.93;2.85;;;20.40;92.20;;;;;;4994431;28;20034;-81
2022/08/22 00:20:05;;;;;;;9.15;2.80;;;20.40;92.20;;;;;;4994253;28;20029;-80
2022/08/22 00:22:53;;;;;;;8.30;2.78;;;20.50;92.40;;;;;;4993356;28;20042;-82
2022/08/22 00:25:33;;;;;;;5.95;2.83;;;20.40;92.60;;;;;;4994502;28;20038;-80
2022/08/22 00:28:07;;;;;;;8.52;2.83;;;20.30;92.70;;;;;;4993230;28;20049;-82
2022/08/22 00:30:44;;;;;;;6.22;3.20;;;20.30;93.00;;;;;;4994550;28;20041;-80
2022/08/22 00:33:37;;;;;;;9.20;2.50;;;20.30;93.00;;;;;;4994524;28;20194;-81
2022/08/22 00:36:22;;;;;;;6.18;2.85;;;20.30;92.90;;;;;;4994410;28;20053;-81
2022/08/22 00:39:02;;;;;;;10.13;3.20;;;20.20;93.00;;;;;;4994265;28;20034;-82
2022/08/22 00:41:55;;;;;;;7.75;2.60;;;20.20;93.10;;;;;;4993049;28;20496;-81
2022/08/22 00:44:53;;;;;;;4.28;2.72;;;20.20;93.10;;;;;;4994131;28;20356;-81
2022/08/22 00:47:35;;;;;;;5.53;2.65;;;20.10;93.60;;;;;;4994268;28;20080;-81
2022/08/22 00:50:21;;;;;;;8.27;2.97;;;20.10;93.60;;;;;;4994716;28;20015;-81
2022/08/22 00:53:24;;;;;;;8.52;2.83;;;20.10;93.70;;;;;;4993286;28;20034;-79
2022/08/22 00:56:08;;;;;;;10.02;3.10;;;20.00;93.80;;;;;;4985086;28;20470;-81
2022/08/22 00:58:54;;;;;;;6.50;2.97;;;20.00;94.00;;;;;;4994381;28;20037;-81
2022/08/22 01:01:50;;;;;;;9.00;3.20;;;19.90;94.10;;;;;;4993893;28;20169;-81
2022/08/22 01:04:28;;;;;;;9.60;3.47;;;20.00;94.20;;;;;;4994090;28;20045;-82
2022/08/22 01:07:07;;;;;;;;;;;20.00;94.30;;;;;;4993355;28;20100;-81
2022/08/22 01:09:54;;;;;;;7.25;2.60;;;19.90;94.30;;;;;;4993553;28;19917;-80
2022/08/22 01:12:58;;;;;;;8.95;3.83;;;19.80;94.30;;;;;;4992653;28;20077;-82
2022/08/22 01:15:28;;;;;;;10.27;3.40;;;19.90;94.30;;;;;;4987542;28;20045;-81
2022/08/22 01:18:15;;;;;;;12.35;3.13;;;20.00;94.10;;;;;;4993845;28;20526;-82
2022/08/22 01:20:55;;;;;;;11.68;3.10;;;19.90;94.40;;;;;;4993513;28;20060;-82
2022/08/22 01:23:59;;;;;;;7.97;3.00;;;19.90;94.40;;;;;;4993660;28;20034;-80
2022/08/22 01:27:08;;;;;;;8.20;2.90;;;19.90;94.30;;;;;;4993402;28;20102;-80
2022/08/22 01:29:49;;;;;;;7.72;2.97;;;19.90;94.40;;;;;;4993892;28;20042;-81
2022/08/22 01:32:46;;;;;;;11.23;3.65;;;19.90;94.50;;;;;;5003619;28;20030;-80
2022/08/22 01:35:58;;;;;;;7.78;2.65;;;19.80;94.50;;;;;;5002945;28;20491;-77
2022/08/22 01:38:55;;;;;;;9.40;3.38;;;19.80;94.50;;;;;;4975564;28;20060;-82
2022/08/22 01:41:44;;;;;;;6.70;2.85;;;19.80;94.50;;;;;;4987653;28;20026;-80
2022/08/22 01:44:44;;;;;;;4.97;2.83;;;19.80;94.40;;;;;;4987997;28;20118;-80
2022/08/22 01:47:15;;;;;;;8.88;2.53;;;19.70;94.70;;;;;;4986270;28;20042;-82
2022/08/22 01:49:47;;;;;;;7.78;2.40;;;19.60;94.90;;;;;;4983090;28;20034;-81
2022/08/22 01:52:37;;;;;;;8.40;2.78;;;19.50;94.90;;;;;;4983888;28;20039;-81
2022/08/22 01:55:31;;;;;;;7.13;2.70;;;19.50;95.00;;;;;;4984022;28;20038;-81
2022/08/22 01:58:02;;;;;;;9.07;3.22;;;19.40;95.10;;;;;;4979251;28;20031;-81
2022/08/22 02:00:46;;;;;;;6.60;3.20;;;19.30;95.10;;;;;;4975292;28;20031;-81
2022/08/22 02:03:32;;;;;;;7.93;2.97;;;19.20;95.30;;;;;;4974481;28;20125;-80
2022/08/22 02:06:06;;;;;;;10.43;2.83;;;19.10;95.50;;;;;;4974454;28;20092;-81
2022/08/22 02:09:03;;;;;;;4.05;2.70;;;19.10;95.60;;;;;;4972960;28;21157;-81
2022/08/22 02:11:44;;;;;;;7.20;2.78;;;19.20;95.50;;;;;;4972672;28;20370;-82
2022/08/22 02:14:35;;;;;;;10.20;2.67;;;19.10;95.50;;;;;;4973725;28;20066;-81
2022/08/22 02:17:21;;;;;;;21.35;11.48;;;19.10;95.50;;;;;;4988824;28;20041;-81
2022/08/22 02:20:22;;;;;;;6.43;3.70;;;19.00;95.70;;;;;;4972776;28;20115;-81
2022/08/22 02:22:51;;;;;;;5.70;2.75;;;19.00;96.00;;;;;;4973627;28;20039;-80
2022/08/22 02:25:24;;;;;;;6.63;3.17;;;19.00;95.50;;;;;;4972856;28;20158;-80
2022/08/22 02:28:15;;;;;;;8.13;3.00;;;19.00;95.50;;;;;;4973034;28;20031;-80
2022/08/22 02:31:03;;;;;;;11.80;3.25;;;18.90;96.00;;;;;;4972887;28;20038;-81
2022/08/22 02:33:44;;;;;;;6.03;2.80;;;18.80;96.00;;;;;;4973020;28;20113;-81
2022/08/22 02:36:19;;;;;;;6.45;2.92;;;18.80;95.90;;;;;;4987948;28;20046;-82
2022/08/22 02:39:19;;;;;;;6.57;2.50;;;18.80;95.90;;;;;;4987920;28;20437;-82
2022/08/22 02:41:51;;;;;;;6.47;2.47;;;18.80;95.90;;;;;;4972614;28;20026;-82
2022/08/22 02:44:26;;;;;;;5.75;3.05;;;18.80;95.90;;;;;;4972982;28;20019;-82
2022/08/22 02:46:54;;;;;;;5.25;2.80;;;18.80;96.00;;;;;;4973235;28;20030;-82
2022/08/22 02:49:32;;;;;;;5.20;2.60;;;18.80;95.90;;;;;;4972903;28;20122;-81
2022/08/22 02:52:20;;;;;;;8.48;2.95;;;18.70;96.00;;;;;;4972898;28;20031;-81
2022/08/22 02:55:15;;;;;;;;;;;18.70;96.10;;;;;;4974476;28;20050;-81
2022/08/22 02:58:04;;;;;;;6.45;2.67;;;18.60;96.20;;;;;;4968831;28;19952;-81
2022/08/22 03:01:00;;;;;;;6.70;2.80;;;18.60;96.20;;;;;;4972801;28;20520;-82
2022/08/22 03:03:30;;;;;;;7.00;2.72;;;18.50;96.30;;;;;;4961753;28;20605;-80
2022/08/22 03:06:05;;;;;;;6.13;2.50;;;18.40;96.40;;;;;;4972720;28;20361;-80
2022/08/22 03:08:36;;;;;;;10.85;3.10;;;18.40;96.30;;;;;;4971787;28;20042;-80
2022/08/22 03:11:26;;;;;;;12.35;3.08;;;18.30;96.50;;;;;;4971576;28;20085;-81
2022/08/22 03:14:08;;;;;;;5.00;2.50;;;18.40;96.50;;;;;;4972283;28;20089;-81
2022/08/22 03:16:36;;;;;;;5.93;3.28;;;18.30;96.50;;;;;;4971726;28;20089;-80
2022/08/22 03:19:05;;;;;;;6.90;3.05;;;18.20;96.60;;;;;;4972255;28;20035;-80
2022/08/22 03:21:40;;;;;;;9.48;3.08;;;18.10;96.70;;;;;;4987100;28;20027;-82
2022/08/22 03:24:36;;;;;;;10.73;3.58;;;18.20;96.60;;;;;;4972308;28;20118;-81
2022/08/22 03:27:09;;;;;;;13.35;3.38;;;18.10;96.70;;;;;;4972247;28;20038;-80
2022/08/22 03:29:39;;;;;;;8.25;3.17;;;18.10;96.80;;;;;;4971075;28;20365;-81
2022/08/22 03:32:18;;;;;;;7.43;3.33;;;18.10;96.90;;;;;;4972324;28;20019;-81
2022/08/22 03:35:08;;;;;;;6.13;3.08;;;18.00;97.00;;;;;;4971802;28;20540;-81
2022/08/22 03:37:36;;;;;;;7.72;2.95;;;18.00;97.10;;;;;;4973665;28;20094;-81
2022/08/22 03:40:02;;;;;;;10.95;3.08;;;18.00;97.10;;;;;;4976126;28;20034;-79
2022/08/22 03:42:50;;;;;;;8.48;3.20;;;18.00;97.10;;;;;;4975886;28;20516;-80
2022/08/22 03:45:47;;;;;;;9.25;3.25;;;17.90;97.10;;;;;;4975968;28;20030;-79
2022/08/22 03:48:37;;;;;;;6.28;2.78;;;17.90;97.20;;;;;;4991568;28;20038;-80
2022/08/22 03:51:09;;;;;;;17.60;8.65;;;17.90;97.20;;;;;;4991354;28;20058;-80
2022/08/22 03:54:02;;;;;;;45.42;24.95;;;17.80;97.30;;;;;;4975597;28;20050;-80
2022/08/22 03:56:55;;;;;;;12.68;4.75;;;17.80;97.20;;;;;;4990895;28;20026;-80
2022/08/22 04:00:00;;;;;;;11.77;3.63;;;17.80;97.30;;;;;;4974883;28;20110;-80
2022/08/22 04:02:48;;;;;;;6.65;2.85;;;17.80;97.30;;;;;;4975785;28;20037;-78
2022/08/22 04:05:23;;;;;;;6.30;3.38;;;17.80;97.20;;;;;;4976082;28;20110;-79
2022/08/22 04:07:49;;;;;;;9.05;3.17;;;17.80;97.10;;;;;;4991294;28;20435;-80
2022/08/22 04:10:32;;;;;;;7.75;2.90;;;17.70;97.20;;;;;;4990858;28;20553;-79
2022/08/22 04:13:20;;;;;;;9.48;2.92;;;17.70;97.40;;;;;;4976299;28;20030;-79
2022/08/22 04:16:07;;;;;;;7.75;3.45;;;17.70;97.20;;;;;;4975882;28;20106;-79
2022/08/22 04:18:49;;;;;;;9.68;3.00;;;17.60;97.40;;;;;;4975576;28;20118;-81
2022/08/22 04:21:22;;;;;;;7.55;3.30;;;17.60;97.50;;;;;;4975344;28;20420;-80
2022/08/22 04:24:11;;;;;;;7.05;3.28;;;17.60;97.40;;;;;;4975328;28;20465;-80
2022/08/22 04:27:01;;;;;;;9.77;3.40;;;17.50;97.40;;;;;;4975477;28;20049;-79
2022/08/22 04:30:04;;;;;;;6.32;2.55;;;17.50;97.40;;;;;;4976627;28;20026;-78
2022/08/22 04:32:56;;;;;;;6.90;2.97;;;17.50;97.40;;;;;;4974802;28;20031;-78
2022/08/22 04:35:35;;;;;;;5.60;3.05;;;17.50;97.50;;;;;;4975477;28;20026;-79
2022/08/22 04:38:38;;;;;;;11.48;3.55;;;17.40;97.50;;;;;;4975496;28;20033;-80
2022/08/22 04:41:17;;;;;;;5.57;2.92;;;17.40;97.50;;;;;;4975263;28;20042;-79
2022/08/22 04:43:51;;;;;;;6.93;3.40;;;17.40;97.70;;;;;;4990593;28;20049;-79
2022/08/22 04:46:53;;;;;;;9.65;3.10;;;17.40;97.80;;;;;;4974833;28;20373;-80
2022/08/22 04:49:35;;;;;;;10.80;3.33;;;17.40;97.80;;;;;;4973844;28;20062;-78
2022/08/22 04:52:31;;;;;;;11.32;3.10;;;17.50;97.80;;;;;;4974565;28;20082;-80
2022/08/22 04:55:15;;;;;;;9.85;2.90;;;17.50;97.60;;;;;;4971488;28;20023;-81
2022/08/22 04:57:48;;;;;;;12.07;3.55;;;17.50;97.60;;;;;;4974546;28;20059;-80
2022/08/22 05:00:15;;;;;;;8.18;3.85;;;17.50;97.60;;;;;;4974738;28;20115;-80
2022/08/22 05:02:49;;;;;;;8.97;3.40;;;17.50;98.00;;;;;;4974415;28;20033;-79
2022/08/22 05:05:37;;;;;;;8.65;3.20;;;17.50;97.80;;;;;;4974375;28;20364;-80
2022/08/22 05:08:08;;;;;;;10.77;3.55;;;17.60;98.00;;;;;;4974671;28;20022;-80
2022/08/22 05:10:38;;;;;;;10.00;3.35;;;17.60;97.90;;;;;;4974347;28;20409;-80
2022/08/22 05:13:31;;;;;;;9.25;3.58;;;17.70;97.80;;;;;;4973606;28;20163;-80
2022/08/22 05:16:20;;;;;;;15.50;4.50;;;17.60;97.90;;;;;;4974384;28;20054;-81
2022/08/22 05:18:56;;;;;;;9.38;3.60;;;17.70;97.90;;;;;;4974309;28;20023;-81
2022/08/22 05:21:30;;;;;;;9.60;3.67;;;17.80;97.80;;;;;;4974032;28;20039;-81
2022/08/22 05:24:08;;;;;;;15.73;4.10;;;17.80;97.90;;;;;;4973107;28;20409;-79
2022/08/22 05:26:51;;;;;;;14.82;4.32;;;17.80;97.70;;;;;;4972910;28;20031;-80
2022/08/22 05:29:22;;;;;;;13.10;4.40;;;17.90;97.90;;;;;;4974291;28;20059;-79
2022/08/22 05:32:13;;;;;;;5.95;3.35;;;17.90;97.80;;;;;;4974839;28;20170;-80
2022/08/22 05:34:42;;;;;;;10.20;3.80;;;17.90;97.70;;;;;;4973614;28;20077;-80
2022/08/22 05:37:16;;;;;;;9.10;3.88;;;18.00;97.90;;;;;;4973531;28;20041;-79
2022/08/22 05:39:46;;;;;;;6.60;3.53;;;17.90;98.10;;;;;;4972760;28;20410;-78
2022/08/22 05:42:32;;;;;;;6.97;3.22;;;17.90;98.20;;;;;;4972766;28;20035;-79
2022/08/22 05:45:01;;;;;;;8.95;4.10;;;18.00;97.90;;;;;;4973805;28;20030;-79
2022/08/22 05:47:38;;;;;;;10.98;3.90;;;18.20;98.00;;;;;;4973793;28;20022;-79
2022/08/22 05:50:17;;;;;;;6.95;4.20;;;18.30;98.10;;;;;;4973091;28;20426;-80
2022/08/22 05:52:58;;;;;;;13.07;4.70;;;18.30;97.90;;;;;;4973915;28;20339;-79
2022/08/22 05:55:40;;;;;;;11.48;3.95;;;18.40;97.90;;;;;;4973799;28;20027;-80
2022/08/22 05:58:54;;;;;;;9.20;5.00;;;18.50;97.90;;;;;;4973707;28;20031;-81
2022/08/22 06:01:58;;;;;;;14.77;6.40;;;18.50;97.90;;;;;;4964106;28;20038;-79
2022/08/22 06:04:36;;;;;;;9.52;5.35;;;18.60;97.70;;;;;;4971803;28;20027;-80
2022/08/22 06:07:14;;;;;;;9.07;3.97;;;18.60;97.60;;;;;;4973659;28;20122;-79
2022/08/22 06:10:06;;;;;;;8.23;3.90;;;18.70;97.50;;;;;;4988056;28;20057;-78
2022/08/22 06:12:31;;;;;;;10.55;3.63;;;18.70;97.40;;;;;;4972126;28;20048;-81
2022/08/22 06:15:03;;;;;;;11.88;4.55;;;18.70;97.30;;;;;;4973269;28;20030;-80
2022/08/22 06:17:50;;;;;;;37.05;5.57;;;18.70;97.50;;;;;;4973216;28;20343;-80
2022/08/22 06:20:20;;;;;;;32.15;4.97;;;18.80;97.30;;;;;;4972814;28;20023;-80
2022/08/22 06:22:51;;;;;;;9.85;3.85;;;18.80;97.30;;;;;;4973687;28;20093;-80
2022/08/22 06:25:26;;;;;;;8.85;3.90;;;18.80;97.40;;;;;;4972999;28;20030;-81
2022/08/22 06:27:53;;;;;;;12.30;4.15;;;18.80;97.30;;;;;;4972148;28;20050;-80
2022/08/22 06:30:22;;;;;;;9.23;4.10;;;18.90;97.30;;;;;;4973107;28;20039;-80
2022/08/22 06:32:53;;;;;;;15.35;6.45;;;18.90;97.10;;;;;;4972741;28;20038;-79
2022/08/22 06:36:29;;;;;;;12.07;3.63;;;19.00;97.10;;;;;;4973101;28;20053;-80
2022/08/22 06:38:18;;;;;;;10.60;4.25;;;19.00;97.10;;;;;;4972897;28;20027;-80
2022/08/22 06:40:44;;;;;;;;;;;19.10;96.80;;;;;;4973775;28;20092;-80
2022/08/22 06:43:11;;;;;;;34.22;5.88;;;19.10;96.80;;;;;;4973094;28;19910;-80
2022/08/22 06:45:39;;;;;;;18.17;4.20;;;19.10;96.70;;;;;;4987755;28;20361;-81
2022/08/22 06:48:05;;;;;;;13.73;4.13;;;19.20;96.70;;;;;;4971499;28;20054;-80
2022/08/22 06:50:40;;;;;;;8.75;3.70;;;19.20;96.70;;;;;;4987799;28;20461;-79
2022/08/22 06:53:14;;;;;;;30.48;4.30;;;19.30;96.80;;;;;;4973473;28;20426;-79
2022/08/22 06:55:46;;;;;;;10.07;3.50;;;19.30;96.70;;;;;;4972734;28;20038;-82
2022/08/22 06:58:37;;;;;;;13.73;4.47;;;19.40;96.70;;;;;;4972698;28;20023;-81
2022/08/22 07:01:26;;;;;;;12.30;3.80;;;19.40;96.70;;;;;;4972450;28;20034;-80
2022/08/22 07:03:59;;;;;;;9.57;3.72;;;19.50;96.50;;;;;;4972905;28;20461;-80
2022/08/22 07:06:37;;;;;;;13.48;4.60;;;19.60;96.40;;;;;;4972361;28;20046;-82
2022/08/22 07:09:03;;;;;;;;;;;19.60;96.40;;;;;;4972716;28;20038;-80
2022/08/22 07:11:33;;;;;;;8.23;3.47;;;19.60;96.30;;;;;;4971619;28;19937;-81
2022/08/22 07:14:10;;;;;;;9.45;3.65;;;19.60;96.10;;;;;;4972752;28;20035;-81
2022/08/22 07:16:55;;;;;;;13.60;3.10;;;19.70;96.30;;;;;;4971372;28;20401;-81
2022/08/22 07:19:27;;;;;;;13.07;3.75;;;19.70;96.00;;;;;;4971261;28;20122;-80
2022/08/22 07:21:54;;;;;;;16.45;4.05;;;19.80;95.90;;;;;;4972224;28;20412;-81
2022/08/22 07:24:28;;;;;;;12.93;3.75;;;19.90;95.80;;;;;;4972099;28;20489;-80
2022/08/22 07:27:08;;;;;;;10.40;3.60;;;19.90;95.60;;;;;;4972346;28;20094;-81
2022/08/22 07:29:46;;;;;;;16.13;4.25;;;19.90;95.60;;;;;;4972294;28;20405;-80
2022/08/22 07:32:12;;;;;;;;;;;20.00;95.60;;;;;;4987855;28;20361;-78
2022/08/22 07:34:52;;;;;;;23.85;4.90;;;20.10;95.60;;;;;;4987790;28;20285;-82
2022/08/22 07:37:28;;;;;;;18.02;3.95;;;20.20;95.40;;;;;;4972283;28;20500;-81
2022/08/22 07:40:06;;;;;;;13.70;3.85;;;20.30;95.30;;;;;;4972301;28;20133;-80
2022/08/22 07:42:47;;;;;;;16.48;3.65;;;20.30;94.80;;;;;;4972394;28;20031;-78
2022/08/22 07:45:38;;;;;;;23.42;4.38;;;20.40;94.70;;;;;;4972863;28;20038;-81
2022/08/22 07:48:13;;;;;;;27.20;5.07;;;20.60;94.60;;;;;;4969115;28;20130;-81
2022/08/22 07:50:55;;;;;;;20.67;4.63;;;20.60;94.00;;;;;;4972781;28;20364;-81
2022/08/22 07:53:42;;;;;;;27.10;4.55;;;20.70;94.20;;;;;;4987837;28;20110;-81
2022/08/22 07:56:34;;;;;;;22.02;3.63;;;20.80;94.10;;;;;;4972526;28;20110;-81
2022/08/22 07:59:09;;;;;;;26.63;4.05;;;20.90;93.90;;;;;;4971995;28;20047;-80
2022/08/22 08:01:36;;;;;;;24.83;5.88;;;21.00;94.00;;;;;;4971970;28;20034;-80
2022/08/22 08:04:07;;;;;;;19.13;4.35;;;21.10;93.90;;;;;;4971936;28;20049;-81
2022/08/22 08:06:36;;;;;;;18.25;4.72;;;21.20;93.60;;;;;;4971724;28;20027;-81
2022/08/22 08:09:03;;;;;;;13.95;3.25;;;21.30;93.60;;;;;;4972015;28;20031;-81
2022/08/22 08:11:34;;;;;;;17.27;3.28;;;21.50;93.30;;;;;;4971580;28;20113;-82
2022/08/22 08:14:06;;;;;;;16.83;2.95;;;21.50;92.90;;;;;;4972416;28;20190;-79
2022/08/22 08:16:46;;;;;;;16.27;3.30;;;21.70;93.10;;;;;;4971854;28;20031;-81
2022/08/22 08:19:15;;;;;;;19.40;3.85;;;21.90;92.40;;;;;;4971931;28;20026;-80
2022/08/22 08:21:50;;;;;;;10.07;2.67;;;22.20;92.20;;;;;;4970556;28;20027;-81
2022/08/22 08:24:22;;;;;;;13.40;3.17;;;22.40;90.60;;;;;;4971755;28;20034;-80
2022/08/22 08:29:42;;;;;;;12.80;2.65;;;23.80;90.20;;;;;;4975402;28;20038;-80
2022/08/22 08:32:10;;;;;;;9.82;2.83;;;25.00;87.30;;;;;;4975722;28;20162;-80
2022/08/22 08:34:38;;;;;;;12.90;3.20;;;25.90;82.20;;;;;;4975208;28;20031;-81
2022/08/22 08:37:07;;;;;;;16.00;2.97;;;26.90;82.10;;;;;;4975603;28;20027;-81
2022/08/22 08:39:54;;;;;;;21.40;3.72;;;27.70;79.40;;;;;;4975419;28;20031;-81
2022/08/22 08:43:25;;;;;;;6.30;2.38;;;28.40;78.60;;;;;;4975223;28;20031;-81
2022/08/22 08:45:35;;;;;;;10.00;2.65;;;29.10;73.50;;;;;;4974851;28;20050;-79
2022/08/22 08:48:26;;;;;;;12.30;2.30;;;29.80;72.40;;;;;;4974072;28;20393;-81
2022/08/22 08:50:54;;;;;;;8.80;2.35;;;30.40;64.90;;;;;;4974916;28;20027;-81
2022/08/22 08:53:55;;;;;;;8.13;2.70;;;30.40;67.50;;;;;;4974453;28;20173;-81
2022/08/22 08:56:34;;;;;;;13.50;2.13;;;31.30;64.40;;;;;;4974682;28;20033;-79
2022/08/22 08:59:25;;;;;;;10.00;2.70;;;32.10;63.10;;;;;;4975091;28;20031;-80
2022/08/22 09:02:04;;;;;;;8.95;1.65;;;32.90;58.90;;;;;;4974687;28;20034;-79
2022/08/22 09:04:38;;;;;;;5.32;1.85;;;33.40;57.80;;;;;;4974681;28;20051;-80
2022/08/22 09:07:47;;;;;;;5.93;1.60;;;34.00;55.90;;;;;;4974456;28;20039;-78
2022/08/22 09:10:39;;;;;;;5.35;2.05;;;34.30;54.50;;;;;;4974167;28;20050;-79
2022/08/22 09:13:41;;;;;;;11.10;2.03;;;35.00;53.40;;;;;;4973942;28;20035;-80
2022/08/22 09:16:28;;;;;;;5.45;1.95;;;35.10;51.80;;;;;;4973188;28;20070;-80
2022/08/22 09:19:02;;;;;;;5.80;2.30;;;35.40;50.60;;;;;;4974364;28;20407;-80
2022/08/22 09:21:59;;;;;;;9.02;2.33;;;36.10;50.40;;;;;;4975242;28;20065;-81
2022/08/22 09:25:01;;;;;;;5.18;1.60;;;36.40;49.10;;;;;;4973221;28;20031;-80
2022/08/22 09:27:32;;;;;;;5.43;1.73;;;36.40;48.00;;;;;;4974833;28;20035;-81
2022/08/22 09:30:08;;;;;;;9.27;2.10;;;37.20;47.30;;;;;;4975372;28;20042;-81
2022/08/22 09:32:49;;;;;;;7.43;2.13;;;37.60;46.60;;;;;;4974246;28;20047;-81
2022/08/22 09:35:23;;;;;;;5.80;1.65;;;37.50;44.50;;;;;;4974536;28;20027;-80
2022/08/22 09:38:17;;;;;;;7.90;2.03;;;37.80;43.70;;;;;;4975106;28;20037;-81
2022/08/22 09:41:21;;;;;;;8.90;2.20;;;37.40;44.60;;;;;;4989495;28;20042;-82
2022/08/22 09:44:02;;;;;;;8.18;2.00;;;38.10;43.70;;;;;;4973892;28;20042;-80
2022/08/22 09:46:54;;;;;;;9.85;1.98;;;38.60;41.40;;;;;;4974692;28;20031;-80
2022/08/22 09:49:57;;;;;;;7.47;2.00;;;39.00;41.30;;;;;;4971013;28;20026;-80
2022/08/22 09:53:14;;;;;;;9.88;2.10;;;39.10;40.80;;;;;;4974396;28;20038;-82
2022/08/22 09:56:09;;;;;;;6.97;1.85;;;38.90;40.00;;;;;;4961855;28;20047;-82
2022/08/22 09:58:53;;;;;;;9.05;2.10;;;38.80;41.00;;;;;;4974377;28;20027;-80
2022/08/22 10:01:39;;;;;;;12.27;2.15;;;39.00;39.00;;;;;;4974468;28;20031;-80
2022/08/22 10:04:30;;;;;;;7.30;2.57;;;39.00;39.60;;;;;;4974486;28;20030;-80
2022/08/22 10:07:29;;;;;;;4.68;1.45;;;39.30;38.40;;;;;;4974379;28;20126;-81
2022/08/22 10:10:14;;;;;;;4.65;2.08;;;39.70;38.70;;;;;;4972889;28;20043;-82
2022/08/22 10:12:58;;;;;;;6.28;2.63;;;39.40;37.20;;;;;;4974277;28;20031;-79
2022/08/22 10:15:37;;;;;;;4.82;1.52;;;38.00;37.30;;;;;;4974421;28;20031;-80
2022/08/22 10:18:38;;;;;;;6.43;2.05;;;38.60;37.50;;;;;;4973941;28;20035;-80
2022/08/22 10:21:18;;;;;;;4.18;2.17;;;39.40;37.50;;;;;;4974132;28;20037;-81
2022/08/22 10:23:52;;;;;;;6.88;1.90;;;38.80;37.40;;;;;;4973478;28;20240;-80
2022/08/22 10:26:53;;;;;;;6.53;1.95;;;38.30;36.20;;;;;;4973768;28;20150;-79
2022/08/22 10:29:56;;;;;;;3.67;1.50;;;38.50;37.60;;;;;;4970106;28;20385;-79
2022/08/22 10:32:50;;;;;;;6.32;2.60;;;37.60;36.20;;;;;;4973156;28;20097;-79
2022/08/22 10:35:46;;;;;;;9.27;2.20;;;37.50;37.00;;;;;;4973263;28;20350;-79
2022/08/22 10:38:34;;;;;;;7.65;3.70;;;38.10;35.50;;;;;;4972412;28;20204;-78
2022/08/22 10:41:14;;;;;;;4.53;1.65;;;37.80;36.60;;;;;;4988017;28;20046;-79
2022/08/22 10:43:49;;;;;;;7.22;1.58;;;37.10;36.50;;;;;;4973579;28;20101;-79
2022/08/22 10:46:22;;;;;;;6.78;1.92;;;37.60;36.80;;;;;;4987834;28;20031;-80
2022/08/22 10:48:59;;;;;;;7.22;1.52;;;37.00;36.50;;;;;;4971580;28;20069;-81
2022/08/22 10:51:34;;;;;;;6.05;1.80;;;36.70;36.50;;;;;;4972556;28;20082;-80
2022/08/22 10:54:36;;;;;;;6.65;2.22;;;36.00;38.20;;;;;;4972416;28;20038;-80
2022/08/22 10:57:22;;;;;;;3.63;1.60;;;35.60;38.90;;;;;;4972457;28;20073;-78
2022/08/22 10:59:57;;;;;;;2.87;1.43;;;35.10;37.80;;;;;;4987371;28;20469;-80
2022/08/22 11:02:49;;;;;;;2.50;1.52;;;34.70;38.40;;;;;;4972526;28;20365;-80
2022/08/22 11:05:33;;;;;;;6.45;1.58;;;34.30;39.50;;;;;;4971665;28;20042;-79
2022/08/22 11:08:28;;;;;;;4.25;1.63;;;33.70;40.30;;;;;;4972696;28;20061;-79
2022/08/22 11:11:26;;;;;;;7.10;2.35;;;33.60;40.10;;;;;;4972122;28;20059;-80
2022/08/22 11:14:11;;;;;;;5.15;1.67;;;32.70;41.10;;;;;;4964657;28;20133;-79
2022/08/22 11:17:01;;;;;;;7.50;1.40;;;32.70;41.40;;;;;;4972487;28;20166;-79
2022/08/22 11:19:42;;;;;;;4.20;1.65;;;32.60;41.00;;;;;;4972208;28;20157;-81
2022/08/22 11:22:38;;;;;;;7.45;1.60;;;32.50;41.50;;;;;;4972289;28;20034;-80
2022/08/22 11:25:35;;;;;;;7.70;2.03;;;32.50;41.40;;;;;;4972232;28;20035;-79
2022/08/22 11:28:18;;;;;;;5.50;1.48;;;31.50;42.00;;;;;;4987609;28;20042;-81
2022/08/22 11:30:45;;;;;;;3.58;1.77;;;31.80;41.90;;;;;;4971850;28;20054;-82
2022/08/22 11:33:23;;;;;;;3.55;1.25;;;31.70;40.70;;;;;;4987701;28;20054;-77
2022/08/22 11:36:08;;;;;;;2.85;1.67;;;31.30;41.20;;;;;;4987145;28;20100;-79
2022/08/22 11:38:41;;;;;;;3.25;1.48;;;31.50;41.70;;;;;;4972484;28;20099;-80
2022/08/22 11:41:15;;;;;;;7.40;2.72;;;31.40;41.50;;;;;;4972493;28;20106;-79
2022/08/22 11:44:00;;;;;;;6.80;1.80;;;31.30;41.40;;;;;;4972415;28;20031;-79
2022/08/22 11:46:46;;;;;;;5.35;1.90;;;31.30;41.50;;;;;;4972622;28;20031;-78
2022/08/22 11:49:45;;;;;;;6.43;1.67;;;31.30;42.10;;;;;;4970917;28;20480;-80
2022/08/22 11:52:38;;;;;;;3.13;1.42;;;31.40;42.10;;;;;;4987423;28;20477;-81
2022/08/22 11:55:10;;;;;;;4.47;1.60;;;31.30;41.70;;;;;;4972366;28;20066;-80
2022/08/22 11:57:38;;;;;;;5.28;1.27;;;31.10;41.50;;;;;;4987422;28;20106;-80
2022/08/22 12:00:33;;;;;;;3.95;1.38;;;30.70;41.60;;;;;;4975287;28;20424;-81
2022/08/22 12:03:32;;;;;;;3.10;1.27;;;30.50;42.00;;;;;;4971751;28;20163;-83
2022/08/22 12:06:18;;;;;;;3.67;1.40;;;30.60;42.20;;;;;;4975989;28;20058;-78
2022/08/22 12:08:49;;;;;;;7.85;1.73;;;30.60;42.30;;;;;;4976505;28;20030;-81
2022/08/22 12:11:29;;;;;;;5.53;1.95;;;30.70;42.90;;;;;;4977042;28;20381;-82
2022/08/22 12:14:03;;;;;;;3.22;1.27;;;30.40;42.40;;;;;;4976267;28;20066;-81
2022/08/22 12:16:45;;;;;;;4.10;1.38;;;30.70;42.50;;;;;;4975591;28;20037;-80
2022/08/22 12:19:29;;;;;;;4.10;1.10;;;30.90;42.40;;;;;;4975302;28;20066;-80
2022/08/22 12:22:06;;;;;;;3.38;1.50;;;30.90;42.00;;;;;;4975221;28;20042;-80
2022/08/22 12:25:02;;;;;;;6.13;1.48;;;30.70;42.20;;;;;;4975538;28;20109;-83
2022/08/22 12:27:56;;;;;;;7.90;1.73;;;30.40;42.40;;;;;;4975168;28;20027;-81
2022/08/22 12:30:45;;;;;;;5.82;1.10;;;30.20;42.50;;;;;;4974109;28;20433;-80
2022/08/22 12:33:38;;;;;;;7.38;1.65;;;30.10;43.30;;;;;;4974883;28;20472;-80
2022/08/22 12:36:32;;;;;;;26.55;17.48;;;30.20;42.60;;;;;;4990388;28;20038;-81
2022/08/22 12:39:16;;;;;;;5.53;1.80;;;30.00;42.60;;;;;;4974923;28;20027;-81
2022/08/22 12:42:08;;;;;;;5.95;1.60;;;29.90;43.00;;;;;;4974843;28;20027;-83
2022/08/22 12:44:52;;;;;;;2.72;1.40;;;30.00;43.50;;;;;;4975260;28;20057;-80
2022/08/22 12:47:55;;;;;;;4.15;1.60;;;29.90;42.70;;;;;;4975426;28;20019;-81
2022/08/22 12:50:42;;;;;;;6.90;2.05;;;29.90;42.80;;;;;;4974955;28;20029;-81
2022/08/22 12:53:30;;;;;;;5.97;1.67;;;29.80;43.30;;;;;;4975075;28;20110;-81
2022/08/22 12:56:14;;;;;;;3.15;1.20;;;29.80;43.00;;;;;;4990008;28;20053;-81
2022/08/22 12:58:40;;;;;;;3.95;1.90;;;29.80;43.10;;;;;;4974947;28;20038;-83
2022/08/22 13:01:09;;;;;;;3.90;1.98;;;29.80;43.10;;;;;;4974854;28;20029;-80
2022/08/22 13:03:43;;;;;;;3.33;1.67;;;29.90;43.60;;;;;;4974461;28;20035;-79
2022/08/22 13:06:34;;;;;;;5.82;1.92;;;30.00;43.30;;;;;;4974994;28;20343;-80
2022/08/22 13:09:09;;;;;;;10.82;2.20;;;30.00;43.20;;;;;;4974956;28;20387;-81
2022/08/22 13:11:44;;;;;;;3.83;2.15;;;30.00;43.10;;;;;;4974102;28;20047;-79
2022/08/22 13:14:12;;;;;;;6.13;1.50;;;30.10;43.10;;;;;;4974931;28;20033;-78
2022/08/22 13:16:47;;;;;;;6.60;1.40;;;30.10;43.10;;;;;;4982998;28;20050;-80
2022/08/22 13:19:22;;;;;;;5.65;1.38;;;30.00;43.00;;;;;;4979289;28;20091;-81
2022/08/22 13:21:57;;;;;;;9.10;1.48;;;29.90;42.20;;;;;;4974632;28;20046;-80
2022/08/22 13:24:42;;;;;;;3.47;1.65;;;29.70;42.50;;;;;;4973232;28;20031;-81
2022/08/22 13:27:15;;;;;;;3.40;1.17;;;29.80;42.70;;;;;;4973835;28;20031;-81
2022/08/22 13:29:52;;;;;;;6.75;3.80;;;29.80;42.60;;;;;;4974199;28;20078;-84
2022/08/22 13:32:31;;;;;;;8.35;3.40;;;29.60;42.70;;;;;;4974186;28;20425;-81
2022/08/22 13:34:58;;;;;;;7.97;1.73;;;29.70;43.10;;;;;;4974186;28;20031;-83
2022/08/22 13:37:44;;;;;;;3.60;1.27;;;29.70;43.00;;;;;;4973748;28;20054;-81
2022/08/22 13:40:24;;;;;;;3.15;1.30;;;29.70;43.00;;;;;;4974717;28;20042;-81
2022/08/22 13:43:00;;;;;;;9.25;2.63;;;29.70;42.40;;;;;;4974335;28;20035;-80
2022/08/22 13:45:28;;;;;;;2.95;1.35;;;29.80;42.60;;;;;;4972920;28;20038;-80
2022/08/22 13:47:57;;;;;;;5.78;1.77;;;29.70;42.20;;;;;;4973905;28;20133;-80
2022/08/22 13:50:27;;;;;;;4.65;1.80;;;29.40;41.90;;;;;;4972939;28;20068;-84
2022/08/22 13:53:03;;;;;;;6.00;1.45;;;29.20;42.00;;;;;;4973507;28;20034;-83
2022/08/22 13:55:32;;;;;;;3.45;1.50;;;29.30;42.80;;;;;;4973240;28;20039;-81
2022/08/22 13:58:15;;;;;;;5.43;1.50;;;29.40;42.60;;;;;;4974189;28;20027;-80
2022/08/22 14:01:25;;;;;;;7.55;1.83;;;29.40;42.10;;;;;;4973971;28;20063;-81
2022/08/22 14:04:00;;;;;;;4.15;1.52;;;29.40;42.70;;;;;;4974002;28;20066;-83
2022/08/22 14:06:38;;;;;;;2.40;1.25;;;29.30;42.70;;;;;;4973503;28;20481;-80